sensor_id;sensor_type;location;lat;lon;timestamp;P1;durP1;ratioP1;P2;durP2;ratioP2
74799;SDS011;63326;45.088;7.658;2023-07-13T00:02:56;3.13;;;1.58;;
74799;SDS011;63326;45.088;7.658;2023-07-13T00:05:23;3.65;;;1.95;;
74799;SDS011;63326;45.088;7.658;2023-07-13T00:07:50;3.10;;;1.90;;
74799;SDS011;63326;45.088;7.658;2023-07-13T00:10:17;4.05;;;1.75;;
74799;SDS011;63326;45.088;7.658;2023-07-13T00:12:44;3.58;;;1.73;;
74799;SDS011;63326;45.088;7.658;2023-07-13T00:15:12;3.30;;;1.55;;
74799;SDS011;63326;45.088;7.658;2023-07-13T00:17:39;3.17;;;1.67;;
74799;SDS011;63326;45.088;7.658;2023-07-13T00:20:06;4.43;;;1.77;;
74799;SDS011;63326;45.088;7.658;2023-07-13T00:22:33;4.07;;;1.88;;
74799;SDS011;63326;45.088;7.658;2023-07-13T00:25:00;4.28;;;1.90;;
74799;SDS011;63326;45.088;7.658;2023-07-13T00:27:27;4.13;;;2.08;;
74799;SDS011;63326;45.088;7.658;2023-07-13T00:29:56;4.30;;;2.05;;
74799;SDS011;63326;45.088;7.658;2023-07-13T00:32:22;5.90;;;2.05;;
74799;SDS011;63326;45.088;7.658;2023-07-13T00:34:51;6.13;;;2.00;;
74799;SDS011;63326;45.088;7.658;2023-07-13T00:37:18;3.42;;;1.75;;
74799;SDS011;63326;45.088;7.658;2023-07-13T00:39:45;5.10;;;2.42;;
74799;SDS011;63326;45.088;7.658;2023-07-13T00:42:11;4.55;;;1.88;;
74799;SDS011;63326;45.088;7.658;2023-07-13T00:44:38;11.88;;;2.22;;
74799;SDS011;63326;45.088;7.658;2023-07-13T00:47:06;3.65;;;2.20;;
74799;SDS011;63326;45.088;7.658;2023-07-13T00:49:33;5.40;;;2.35;;
74799;SDS011;63326;45.088;7.658;2023-07-13T00:52:05;6.03;;;2.22;;
74799;SDS011;63326;45.088;7.658;2023-07-13T00:54:37;6.30;;;2.45;;
74799;SDS011;63326;45.088;7.658;2023-07-13T00:57:05;4.45;;;2.40;;
74799;SDS011;63326;45.088;7.658;2023-07-13T00:59:33;4.03;;;2.00;;
74799;SDS011;63326;45.088;7.658;2023-07-13T01:02:01;4.35;;;2.00;;
74799;SDS011;63326;45.088;7.658;2023-07-13T01:04:29;4.35;;;2.17;;
74799;SDS011;63326;45.088;7.658;2023-07-13T01:06:56;8.75;;;2.65;;
74799;SDS011;63326;45.088;7.658;2023-07-13T01:09:23;4.53;;;2.47;;
74799;SDS011;63326;45.088;7.658;2023-07-13T01:11:50;7.20;;;2.20;;
74799;SDS011;63326;45.088;7.658;2023-07-13T01:14:16;5.95;;;2.22;;
74799;SDS011;63326;45.088;7.658;2023-07-13T01:16:44;4.60;;;2.33;;
74799;SDS011;63326;45.088;7.658;2023-07-13T01:19:14;5.28;;;2.10;;
74799;SDS011;63326;45.088;7.658;2023-07-13T01:21:42;6.50;;;2.20;;
74799;SDS011;63326;45.088;7.658;2023-07-13T01:24:09;6.35;;;3.20;;
74799;SDS011;63326;45.088;7.658;2023-07-13T01:26:36;4.05;;;1.98;;
74799;SDS011;63326;45.088;7.658;2023-07-13T01:29:06;5.75;;;2.70;;
74799;SDS011;63326;45.088;7.658;2023-07-13T01:31:36;5.53;;;2.20;;
74799;SDS011;63326;45.088;7.658;2023-07-13T01:34:03;5.00;;;2.42;;
74799;SDS011;63326;45.088;7.658;2023-07-13T01:36:29;6.15;;;2.72;;
74799;SDS011;63326;45.088;7.658;2023-07-13T01:38:56;6.25;;;2.90;;
74799;SDS011;63326;45.088;7.658;2023-07-13T01:41:22;4.57;;;2.90;;
74799;SDS011;63326;45.088;7.658;2023-07-13T01:43:49;6.38;;;2.65;;
74799;SDS011;63326;45.088;7.658;2023-07-13T01:46:16;6.55;;;2.10;;
74799;SDS011;63326;45.088;7.658;2023-07-13T01:48:49;4.47;;;2.28;;
74799;SDS011;63326;45.088;7.658;2023-07-13T01:51:16;9.07;;;2.67;;
74799;SDS011;63326;45.088;7.658;2023-07-13T01:53:44;5.32;;;2.33;;
74799;SDS011;63326;45.088;7.658;2023-07-13T01:56:10;4.07;;;2.60;;
74799;SDS011;63326;45.088;7.658;2023-07-13T01:58:37;5.32;;;2.40;;
74799;SDS011;63326;45.088;7.658;2023-07-13T02:01:04;5.47;;;2.17;;
74799;SDS011;63326;45.088;7.658;2023-07-13T02:03:31;5.10;;;2.45;;
74799;SDS011;63326;45.088;7.658;2023-07-13T02:05:57;4.53;;;2.40;;
74799;SDS011;63326;45.088;7.658;2023-07-13T02:08:24;9.35;;;2.42;;
74799;SDS011;63326;45.088;7.658;2023-07-13T02:10:50;6.18;;;2.83;;
74799;SDS011;63326;45.088;7.658;2023-07-13T02:13:17;5.25;;;2.53;;
74799;SDS011;63326;45.088;7.658;2023-07-13T02:15:43;7.70;;;3.42;;
74799;SDS011;63326;45.088;7.658;2023-07-13T02:18:10;6.68;;;3.10;;
74799;SDS011;63326;45.088;7.658;2023-07-13T02:20:37;3.90;;;1.88;;
74799;SDS011;63326;45.088;7.658;2023-07-13T02:23:03;7.18;;;2.65;;
74799;SDS011;63326;45.088;7.658;2023-07-13T02:25:32;5.38;;;2.67;;
74799;SDS011;63326;45.088;7.658;2023-07-13T02:27:59;6.20;;;2.75;;
74799;SDS011;63326;45.088;7.658;2023-07-13T02:30:27;5.28;;;1.92;;
74799;SDS011;63326;45.088;7.658;2023-07-13T02:32:57;5.22;;;2.67;;
74799;SDS011;63326;45.088;7.658;2023-07-13T02:35:23;6.88;;;2.85;;
74799;SDS011;63326;45.088;7.658;2023-07-13T02:37:50;4.32;;;2.50;;
74799;SDS011;63326;45.088;7.658;2023-07-13T02:40:17;5.57;;;2.45;;
74799;SDS011;63326;45.088;7.658;2023-07-13T02:42:43;5.53;;;2.60;;
74799;SDS011;63326;45.088;7.658;2023-07-13T02:45:10;7.40;;;2.53;;
74799;SDS011;63326;45.088;7.658;2023-07-13T02:47:36;4.70;;;2.30;;
74799;SDS011;63326;45.088;7.658;2023-07-13T02:50:03;5.97;;;1.95;;
74799;SDS011;63326;45.088;7.658;2023-07-13T02:52:30;6.95;;;2.33;;
74799;SDS011;63326;45.088;7.658;2023-07-13T02:54:57;6.32;;;2.80;;
74799;SDS011;63326;45.088;7.658;2023-07-13T02:57:24;4.45;;;2.33;;
74799;SDS011;63326;45.088;7.658;2023-07-13T02:59:51;4.90;;;2.42;;
74799;SDS011;63326;45.088;7.658;2023-07-13T03:02:18;6.53;;;2.58;;
74799;SDS011;63326;45.088;7.658;2023-07-13T03:04:44;6.97;;;2.90;;
74799;SDS011;63326;45.088;7.658;2023-07-13T03:07:11;6.88;;;2.75;;
74799;SDS011;63326;45.088;7.658;2023-07-13T03:09:38;4.90;;;2.70;;
74799;SDS011;63326;45.088;7.658;2023-07-13T03:12:06;4.57;;;2.15;;
74799;SDS011;63326;45.088;7.658;2023-07-13T03:14:34;5.82;;;2.80;;
74799;SDS011;63326;45.088;7.658;2023-07-13T03:17:04;5.13;;;2.88;;
74799;SDS011;63326;45.088;7.658;2023-07-13T03:19:33;4.32;;;2.55;;
74799;SDS011;63326;45.088;7.658;2023-07-13T03:24:28;4.85;;;2.22;;
74799;SDS011;63326;45.088;7.658;2023-07-13T03:26:56;6.03;;;2.20;;
74799;SDS011;63326;45.088;7.658;2023-07-13T03:29:23;5.50;;;2.55;;
74799;SDS011;63326;45.088;7.658;2023-07-13T03:31:51;4.30;;;2.38;;
74799;SDS011;63326;45.088;7.658;2023-07-13T03:34:18;6.38;;;2.53;;
74799;SDS011;63326;45.088;7.658;2023-07-13T03:36:44;6.00;;;2.90;;
74799;SDS011;63326;45.088;7.658;2023-07-13T03:39:12;6.30;;;2.53;;
74799;SDS011;63326;45.088;7.658;2023-07-13T03:41:53;8.88;;;2.88;;
74799;SDS011;63326;45.088;7.658;2023-07-13T03:46:52;4.03;;;1.98;;
74799;SDS011;63326;45.088;7.658;2023-07-13T03:49:19;4.45;;;1.75;;
74799;SDS011;63326;45.088;7.658;2023-07-13T03:51:45;4.20;;;1.92;;
74799;SDS011;63326;45.088;7.658;2023-07-13T03:54:12;6.25;;;2.67;;
74799;SDS011;63326;45.088;7.658;2023-07-13T03:56:39;3.72;;;2.03;;
74799;SDS011;63326;45.088;7.658;2023-07-13T03:59:07;9.63;;;2.95;;
74799;SDS011;63326;45.088;7.658;2023-07-13T04:01:34;4.15;;;2.22;;
74799;SDS011;63326;45.088;7.658;2023-07-13T04:04:00;6.22;;;2.67;;
74799;SDS011;63326;45.088;7.658;2023-07-13T04:06:30;4.57;;;1.90;;
74799;SDS011;63326;45.088;7.658;2023-07-13T04:08:58;4.85;;;1.88;;
74799;SDS011;63326;45.088;7.658;2023-07-13T04:11:26;5.55;;;2.17;;
74799;SDS011;63326;45.088;7.658;2023-07-13T04:13:53;4.43;;;2.28;;
74799;SDS011;63326;45.088;7.658;2023-07-13T04:16:20;4.03;;;2.08;;
74799;SDS011;63326;45.088;7.658;2023-07-13T04:18:47;4.53;;;2.25;;
74799;SDS011;63326;45.088;7.658;2023-07-13T04:21:14;4.13;;;1.90;;
74799;SDS011;63326;45.088;7.658;2023-07-13T04:23:41;3.70;;;1.85;;
74799;SDS011;63326;45.088;7.658;2023-07-13T04:26:08;5.82;;;2.50;;
74799;SDS011;63326;45.088;7.658;2023-07-13T04:28:36;4.03;;;2.17;;
74799;SDS011;63326;45.088;7.658;2023-07-13T04:31:03;7.38;;;2.72;;
74799;SDS011;63326;45.088;7.658;2023-07-13T04:33:30;4.03;;;2.80;;
74799;SDS011;63326;45.088;7.658;2023-07-13T04:35:56;4.55;;;1.98;;
74799;SDS011;63326;45.088;7.658;2023-07-13T04:38:24;5.85;;;2.42;;
74799;SDS011;63326;45.088;7.658;2023-07-13T04:40:51;5.68;;;2.67;;
74799;SDS011;63326;45.088;7.658;2023-07-13T04:43:18;5.25;;;2.40;;
74799;SDS011;63326;45.088;7.658;2023-07-13T04:45:45;5.03;;;2.80;;
74799;SDS011;63326;45.088;7.658;2023-07-13T04:48:11;5.15;;;2.55;;
74799;SDS011;63326;45.088;7.658;2023-07-13T04:50:38;6.40;;;2.20;;
74799;SDS011;63326;45.088;7.658;2023-07-13T04:53:05;4.53;;;2.05;;
74799;SDS011;63326;45.088;7.658;2023-07-13T04:55:31;6.20;;;2.65;;
74799;SDS011;63326;45.088;7.658;2023-07-13T04:57:58;8.32;;;2.88;;
74799;SDS011;63326;45.088;7.658;2023-07-13T05:00:25;4.82;;;2.45;;
74799;SDS011;63326;45.088;7.658;2023-07-13T05:02:53;4.78;;;2.65;;
74799;SDS011;63326;45.088;7.658;2023-07-13T05:05:20;4.85;;;2.28;;
74799;SDS011;63326;45.088;7.658;2023-07-13T05:07:47;4.30;;;1.92;;
74799;SDS011;63326;45.088;7.658;2023-07-13T05:10:14;6.05;;;2.00;;
74799;SDS011;63326;45.088;7.658;2023-07-13T05:12:41;4.75;;;2.72;;
74799;SDS011;63326;45.088;7.658;2023-07-13T05:15:07;4.78;;;2.28;;
74799;SDS011;63326;45.088;7.658;2023-07-13T05:17:34;7.43;;;3.00;;
74799;SDS011;63326;45.088;7.658;2023-07-13T05:20:01;4.18;;;2.42;;
74799;SDS011;63326;45.088;7.658;2023-07-13T05:22:27;3.55;;;1.98;;
74799;SDS011;63326;45.088;7.658;2023-07-13T05:24:54;4.75;;;2.70;;
74799;SDS011;63326;45.088;7.658;2023-07-13T05:27:20;5.25;;;2.42;;
74799;SDS011;63326;45.088;7.658;2023-07-13T05:29:47;4.72;;;2.65;;
74799;SDS011;63326;45.088;7.658;2023-07-13T05:32:13;4.07;;;2.22;;
74799;SDS011;63326;45.088;7.658;2023-07-13T05:34:40;4.32;;;2.10;;
74799;SDS011;63326;45.088;7.658;2023-07-13T05:37:07;5.15;;;2.35;;
74799;SDS011;63326;45.088;7.658;2023-07-13T05:39:34;5.15;;;2.25;;
74799;SDS011;63326;45.088;7.658;2023-07-13T05:42:01;4.53;;;2.20;;
74799;SDS011;63326;45.088;7.658;2023-07-13T05:44:28;3.88;;;1.67;;
74799;SDS011;63326;45.088;7.658;2023-07-13T05:46:54;4.82;;;1.95;;
74799;SDS011;63326;45.088;7.658;2023-07-13T05:49:23;3.58;;;2.00;;
74799;SDS011;63326;45.088;7.658;2023-07-13T05:51:49;5.30;;;2.50;;
74799;SDS011;63326;45.088;7.658;2023-07-13T05:54:16;5.97;;;3.22;;
74799;SDS011;63326;45.088;7.658;2023-07-13T05:56:43;5.53;;;2.90;;
74799;SDS011;63326;45.088;7.658;2023-07-13T05:59:09;6.75;;;3.00;;
74799;SDS011;63326;45.088;7.658;2023-07-13T06:01:36;5.85;;;3.08;;
74799;SDS011;63326;45.088;7.658;2023-07-13T06:04:03;4.88;;;2.53;;
74799;SDS011;63326;45.088;7.658;2023-07-13T06:06:29;4.47;;;2.45;;
74799;SDS011;63326;45.088;7.658;2023-07-13T06:08:56;5.88;;;2.47;;
74799;SDS011;63326;45.088;7.658;2023-07-13T06:11:24;7.35;;;2.50;;
74799;SDS011;63326;45.088;7.658;2023-07-13T06:13:51;7.13;;;3.58;;
74799;SDS011;63326;45.088;7.658;2023-07-13T06:16:17;5.68;;;3.22;;
74799;SDS011;63326;45.088;7.658;2023-07-13T06:18:45;5.05;;;2.70;;
74799;SDS011;63326;45.088;7.658;2023-07-13T06:21:15;7.18;;;3.10;;
74799;SDS011;63326;45.088;7.658;2023-07-13T06:23:42;6.13;;;3.50;;
74799;SDS011;63326;45.088;7.658;2023-07-13T06:28:36;5.22;;;2.85;;
74799;SDS011;63326;45.088;7.658;2023-07-13T06:31:04;4.47;;;2.70;;
74799;SDS011;63326;45.088;7.658;2023-07-13T06:33:31;8.07;;;3.33;;
74799;SDS011;63326;45.088;7.658;2023-07-13T06:35:58;5.90;;;2.55;;
74799;SDS011;63326;45.088;7.658;2023-07-13T06:38:24;6.22;;;3.20;;
74799;SDS011;63326;45.088;7.658;2023-07-13T06:40:51;4.85;;;2.58;;
74799;SDS011;63326;45.088;7.658;2023-07-13T06:43:17;6.75;;;2.92;;
74799;SDS011;63326;45.088;7.658;2023-07-13T06:45:45;4.32;;;2.78;;
74799;SDS011;63326;45.088;7.658;2023-07-13T06:48:14;7.43;;;2.80;;
74799;SDS011;63326;45.088;7.658;2023-07-13T06:50:41;5.38;;;2.45;;
74799;SDS011;63326;45.088;7.658;2023-07-13T06:53:08;4.20;;;2.03;;
74799;SDS011;63326;45.088;7.658;2023-07-13T06:55:34;5.47;;;2.53;;
74799;SDS011;63326;45.088;7.658;2023-07-13T06:58:01;6.65;;;2.78;;
74799;SDS011;63326;45.088;7.658;2023-07-13T07:00:28;6.40;;;3.35;;
74799;SDS011;63326;45.088;7.658;2023-07-13T07:02:54;4.80;;;2.40;;
74799;SDS011;63326;45.088;7.658;2023-07-13T07:05:21;4.95;;;2.35;;
74799;SDS011;63326;45.088;7.658;2023-07-13T07:07:49;4.75;;;2.65;;
74799;SDS011;63326;45.088;7.658;2023-07-13T07:10:16;5.50;;;2.53;;
74799;SDS011;63326;45.088;7.658;2023-07-13T07:12:42;4.50;;;2.40;;
74799;SDS011;63326;45.088;7.658;2023-07-13T07:15:09;4.53;;;2.10;;
74799;SDS011;63326;45.088;7.658;2023-07-13T07:17:35;3.95;;;1.73;;
74799;SDS011;63326;45.088;7.658;2023-07-13T07:20:02;4.40;;;1.95;;
74799;SDS011;63326;45.088;7.658;2023-07-13T07:22:29;5.13;;;2.38;;
74799;SDS011;63326;45.088;7.658;2023-07-13T07:27:23;3.70;;;2.25;;
74799;SDS011;63326;45.088;7.658;2023-07-13T07:29:53;3.60;;;1.90;;
74799;SDS011;63326;45.088;7.658;2023-07-13T07:32:39;6.18;;;2.20;;
74799;SDS011;63326;45.088;7.658;2023-07-13T07:35:09;3.80;;;2.15;;
74799;SDS011;63326;45.088;7.658;2023-07-13T07:37:35;4.65;;;1.90;;
74799;SDS011;63326;45.088;7.658;2023-07-13T07:40:05;3.58;;;2.13;;
74799;SDS011;63326;45.088;7.658;2023-07-13T07:42:35;3.72;;;2.50;;
74799;SDS011;63326;45.088;7.658;2023-07-13T07:45:01;5.57;;;2.42;;
74799;SDS011;63326;45.088;7.658;2023-07-13T07:47:28;4.43;;;2.40;;
74799;SDS011;63326;45.088;7.658;2023-07-13T07:49:55;4.47;;;1.95;;
74799;SDS011;63326;45.088;7.658;2023-07-13T07:52:21;4.05;;;2.08;;
74799;SDS011;63326;45.088;7.658;2023-07-13T07:54:48;5.53;;;1.90;;
74799;SDS011;63326;45.088;7.658;2023-07-13T07:57:18;4.07;;;2.30;;
74799;SDS011;63326;45.088;7.658;2023-07-13T08:00:04;3.15;;;1.95;;
74799;SDS011;63326;45.088;7.658;2023-07-13T08:02:39;4.43;;;2.65;;
74799;SDS011;63326;45.088;7.658;2023-07-13T08:05:27;3.85;;;1.90;;
74799;SDS011;63326;45.088;7.658;2023-07-13T08:07:56;4.50;;;2.00;;
74799;SDS011;63326;45.088;7.658;2023-07-13T08:10:23;3.95;;;1.80;;
74799;SDS011;63326;45.088;7.658;2023-07-13T08:12:50;3.72;;;2.13;;
74799;SDS011;63326;45.088;7.658;2023-07-13T08:15:19;4.10;;;2.40;;
74799;SDS011;63326;45.088;7.658;2023-07-13T08:17:47;4.85;;;2.13;;
74799;SDS011;63326;45.088;7.658;2023-07-13T08:20:14;4.22;;;2.20;;
74799;SDS011;63326;45.088;7.658;2023-07-13T08:22:41;3.50;;;1.95;;
74799;SDS011;63326;45.088;7.658;2023-07-13T08:25:08;4.30;;;2.35;;
74799;SDS011;63326;45.088;7.658;2023-07-13T08:27:35;3.22;;;2.10;;
74799;SDS011;63326;45.088;7.658;2023-07-13T08:30:01;5.85;;;2.00;;
74799;SDS011;63326;45.088;7.658;2023-07-13T08:32:28;3.42;;;1.88;;
74799;SDS011;63326;45.088;7.658;2023-07-13T08:34:54;4.13;;;2.22;;
74799;SDS011;63326;45.088;7.658;2023-07-13T08:37:21;4.63;;;2.53;;
74799;SDS011;63326;45.088;7.658;2023-07-13T08:39:48;5.65;;;2.33;;
74799;SDS011;63326;45.088;7.658;2023-07-13T08:44:57;3.10;;;1.95;;
74799;SDS011;63326;45.088;7.658;2023-07-13T08:47:30;3.75;;;2.38;;
74799;SDS011;63326;45.088;7.658;2023-07-13T08:49:58;5.05;;;2.38;;
74799;SDS011;63326;45.088;7.658;2023-07-13T08:52:35;4.40;;;2.40;;
74799;SDS011;63326;45.088;7.658;2023-07-13T08:55:09;5.75;;;2.28;;
74799;SDS011;63326;45.088;7.658;2023-07-13T08:57:38;4.60;;;2.30;;
74799;SDS011;63326;45.088;7.658;2023-07-13T09:00:13;5.20;;;2.58;;
74799;SDS011;63326;45.088;7.658;2023-07-13T09:05:12;4.05;;;2.35;;
74799;SDS011;63326;45.088;7.658;2023-07-13T09:15:24;4.22;;;2.45;;
74799;SDS011;63326;45.088;7.658;2023-07-13T09:17:52;4.72;;;2.20;;
74799;SDS011;63326;45.088;7.658;2023-07-13T09:20:26;3.35;;;1.80;;
74799;SDS011;63326;45.088;7.658;2023-07-13T09:22:55;4.28;;;2.13;;
74799;SDS011;63326;45.088;7.658;2023-07-13T09:25:24;4.07;;;2.40;;
74799;SDS011;63326;45.088;7.658;2023-07-13T09:27:53;5.22;;;2.50;;
74799;SDS011;63326;45.088;7.658;2023-07-13T09:30:29;4.28;;;2.40;;
74799;SDS011;63326;45.088;7.658;2023-07-13T09:32:56;3.85;;;2.20;;
74799;SDS011;63326;45.088;7.658;2023-07-13T09:35:25;5.50;;;2.22;;
74799;SDS011;63326;45.088;7.658;2023-07-13T09:38:13;5.68;;;3.13;;
74799;SDS011;63326;45.088;7.658;2023-07-13T09:43:27;4.82;;;2.70;;
74799;SDS011;63326;45.088;7.658;2023-07-13T09:45:57;5.72;;;2.83;;
74799;SDS011;63326;45.088;7.658;2023-07-13T09:48:23;6.28;;;2.97;;
74799;SDS011;63326;45.088;7.658;2023-07-13T09:50:54;5.45;;;2.58;;
74799;SDS011;63326;45.088;7.658;2023-07-13T09:53:21;8.60;;;2.85;;
74799;SDS011;63326;45.088;7.658;2023-07-13T09:55:50;3.95;;;2.55;;
74799;SDS011;63326;45.088;7.658;2023-07-13T09:58:20;6.13;;;2.85;;
74799;SDS011;63326;45.088;7.658;2023-07-13T10:03:25;5.53;;;2.60;;
74799;SDS011;63326;45.088;7.658;2023-07-13T10:05:52;5.93;;;3.25;;
74799;SDS011;63326;45.088;7.658;2023-07-13T10:08:29;4.93;;;2.67;;
74799;SDS011;63326;45.088;7.658;2023-07-13T10:11:01;3.95;;;2.40;;
74799;SDS011;63326;45.088;7.658;2023-07-13T10:13:33;6.45;;;2.42;;
74799;SDS011;63326;45.088;7.658;2023-07-13T10:16:06;6.05;;;2.65;;
74799;SDS011;63326;45.088;7.658;2023-07-13T10:18:37;6.78;;;2.78;;
74799;SDS011;63326;45.088;7.658;2023-07-13T10:21:15;7.45;;;2.75;;
74799;SDS011;63326;45.088;7.658;2023-07-13T10:23:47;6.38;;;2.72;;
74799;SDS011;63326;45.088;7.658;2023-07-13T10:26:16;5.40;;;2.95;;
74799;SDS011;63326;45.088;7.658;2023-07-13T10:28:45;4.45;;;2.50;;
74799;SDS011;63326;45.088;7.658;2023-07-13T10:31:14;6.97;;;3.88;;
74799;SDS011;63326;45.088;7.658;2023-07-13T10:33:43;4.30;;;2.45;;
74799;SDS011;63326;45.088;7.658;2023-07-13T10:36:12;5.15;;;2.85;;
74799;SDS011;63326;45.088;7.658;2023-07-13T10:38:42;5.95;;;2.65;;
74799;SDS011;63326;45.088;7.658;2023-07-13T10:46:04;6.55;;;3.13;;
74799;SDS011;63326;45.088;7.658;2023-07-13T10:48:32;4.72;;;3.10;;
74799;SDS011;63326;45.088;7.658;2023-07-13T10:51:01;5.57;;;2.92;;
74799;SDS011;63326;45.088;7.658;2023-07-13T10:53:29;5.15;;;2.88;;
74799;SDS011;63326;45.088;7.658;2023-07-13T10:56:00;5.25;;;2.85;;
74799;SDS011;63326;45.088;7.658;2023-07-13T10:58:32;4.57;;;2.50;;
74799;SDS011;63326;45.088;7.658;2023-07-13T11:01:09;6.75;;;3.03;;
74799;SDS011;63326;45.088;7.658;2023-07-13T11:06:12;4.43;;;2.83;;
74799;SDS011;63326;45.088;7.658;2023-07-13T11:18:45;7.32;;;2.90;;
74799;SDS011;63326;45.088;7.658;2023-07-13T11:21:13;6.32;;;2.58;;
74799;SDS011;63326;45.088;7.658;2023-07-13T11:31:54;6.00;;;3.10;;
74799;SDS011;63326;45.088;7.658;2023-07-13T11:34:23;5.53;;;2.55;;
74799;SDS011;63326;45.088;7.658;2023-07-13T11:36:51;4.70;;;3.30;;
74799;SDS011;63326;45.088;7.658;2023-07-13T11:39:28;6.47;;;3.42;;
74799;SDS011;63326;45.088;7.658;2023-07-13T11:41:57;4.78;;;3.38;;
74799;SDS011;63326;45.088;7.658;2023-07-13T11:44:26;4.53;;;3.10;;
74799;SDS011;63326;45.088;7.658;2023-07-13T11:46:54;7.13;;;3.40;;
74799;SDS011;63326;45.088;7.658;2023-07-13T11:49:25;8.20;;;3.88;;
74799;SDS011;63326;45.088;7.658;2023-07-13T11:51:53;7.35;;;3.90;;
74799;SDS011;63326;45.088;7.658;2023-07-13T11:57:38;4.57;;;3.08;;
74799;SDS011;63326;45.088;7.658;2023-07-13T11:59:44;5.00;;;3.10;;
74799;SDS011;63326;45.088;7.658;2023-07-13T12:02:15;5.82;;;3.47;;
74799;SDS011;63326;45.088;7.658;2023-07-13T12:04:42;4.85;;;3.28;;
74799;SDS011;63326;45.088;7.658;2023-07-13T12:09:36;7.05;;;3.40;;
74799;SDS011;63326;45.088;7.658;2023-07-13T12:12:03;4.90;;;3.15;;
74799;SDS011;63326;45.088;7.658;2023-07-13T12:14:33;6.78;;;3.28;;
74799;SDS011;63326;45.088;7.658;2023-07-13T12:17:00;6.63;;;4.47;;
74799;SDS011;63326;45.088;7.658;2023-07-13T12:19:27;4.70;;;3.22;;
74799;SDS011;63326;45.088;7.658;2023-07-13T12:21:58;4.68;;;3.35;;
74799;SDS011;63326;45.088;7.658;2023-07-13T12:24:25;7.38;;;3.28;;
74799;SDS011;63326;45.088;7.658;2023-07-13T12:26:55;4.57;;;3.17;;
74799;SDS011;63326;45.088;7.658;2023-07-13T12:29:22;6.60;;;3.50;;
74799;SDS011;63326;45.088;7.658;2023-07-13T12:31:49;4.85;;;3.60;;
74799;SDS011;63326;45.088;7.658;2023-07-13T12:34:17;5.78;;;3.60;;
74799;SDS011;63326;45.088;7.658;2023-07-13T12:36:46;9.38;;;3.50;;
74799;SDS011;63326;45.088;7.658;2023-07-13T12:39:14;5.32;;;3.25;;
74799;SDS011;63326;45.088;7.658;2023-07-13T12:41:41;6.88;;;4.10;;
74799;SDS011;63326;45.088;7.658;2023-07-13T12:46:34;6.05;;;3.42;;
74799;SDS011;63326;45.088;7.658;2023-07-13T12:49:01;6.22;;;3.70;;
74799;SDS011;63326;45.088;7.658;2023-07-13T12:51:44;6.10;;;3.65;;
74799;SDS011;63326;45.088;7.658;2023-07-13T12:54:16;5.85;;;3.85;;
74799;SDS011;63326;45.088;7.658;2023-07-13T12:56:43;9.10;;;3.95;;
74799;SDS011;63326;45.088;7.658;2023-07-13T12:59:15;8.23;;;3.58;;
74799;SDS011;63326;45.088;7.658;2023-07-13T13:01:43;6.20;;;2.95;;
74799;SDS011;63326;45.088;7.658;2023-07-13T13:04:10;7.00;;;4.35;;
74799;SDS011;63326;45.088;7.658;2023-07-13T13:06:37;6.25;;;3.80;;
74799;SDS011;63326;45.088;7.658;2023-07-13T13:09:05;4.97;;;3.25;;
74799;SDS011;63326;45.088;7.658;2023-07-13T13:11:35;6.03;;;3.78;;
74799;SDS011;63326;45.088;7.658;2023-07-13T13:14:02;7.68;;;4.35;;
74799;SDS011;63326;45.088;7.658;2023-07-13T13:16:31;6.07;;;3.47;;
74799;SDS011;63326;45.088;7.658;2023-07-13T13:19:15;5.70;;;3.08;;
74799;SDS011;63326;45.088;7.658;2023-07-13T13:21:42;4.65;;;3.35;;
74799;SDS011;63326;45.088;7.658;2023-07-13T13:24:13;6.07;;;4.13;;
74799;SDS011;63326;45.088;7.658;2023-07-13T13:26:40;6.68;;;3.42;;
74799;SDS011;63326;45.088;7.658;2023-07-13T13:29:15;5.53;;;3.60;;
74799;SDS011;63326;45.088;7.658;2023-07-13T13:31:42;7.13;;;4.07;;
74799;SDS011;63326;45.088;7.658;2023-07-13T13:34:10;7.20;;;3.70;;
74799;SDS011;63326;45.088;7.658;2023-07-13T13:36:37;6.40;;;3.90;;
74799;SDS011;63326;45.088;7.658;2023-07-13T13:39:05;10.45;;;3.60;;
74799;SDS011;63326;45.088;7.658;2023-07-13T13:41:40;8.70;;;4.18;;
74799;SDS011;63326;45.088;7.658;2023-07-13T13:44:09;4.72;;;3.40;;
74799;SDS011;63326;45.088;7.658;2023-07-13T13:46:36;5.65;;;3.38;;
74799;SDS011;63326;45.088;7.658;2023-07-13T13:49:03;6.68;;;3.67;;
74799;SDS011;63326;45.088;7.658;2023-07-13T13:51:29;5.63;;;3.67;;
74799;SDS011;63326;45.088;7.658;2023-07-13T13:53:56;5.57;;;3.63;;
74799;SDS011;63326;45.088;7.658;2023-07-13T13:56:24;8.27;;;3.55;;
74799;SDS011;63326;45.088;7.658;2023-07-13T13:58:52;5.65;;;3.75;;
74799;SDS011;63326;45.088;7.658;2023-07-13T14:01:19;7.38;;;3.47;;
74799;SDS011;63326;45.088;7.658;2023-07-13T14:03:47;9.38;;;4.03;;
74799;SDS011;63326;45.088;7.658;2023-07-13T14:06:18;7.55;;;3.60;;
74799;SDS011;63326;45.088;7.658;2023-07-13T14:08:45;5.07;;;3.53;;
74799;SDS011;63326;45.088;7.658;2023-07-13T14:11:12;6.55;;;3.35;;
74799;SDS011;63326;45.088;7.658;2023-07-13T14:13:43;7.10;;;3.53;;
74799;SDS011;63326;45.088;7.658;2023-07-13T14:18:40;5.70;;;3.92;;
74799;SDS011;63326;45.088;7.658;2023-07-13T14:21:16;7.38;;;4.05;;
74799;SDS011;63326;45.088;7.658;2023-07-13T14:23:45;6.78;;;3.75;;
74799;SDS011;63326;45.088;7.658;2023-07-13T14:26:13;8.68;;;3.65;;
74799;SDS011;63326;45.088;7.658;2023-07-13T14:28:41;6.32;;;4.05;;
74799;SDS011;63326;45.088;7.658;2023-07-13T14:31:10;7.35;;;3.42;;
74799;SDS011;63326;45.088;7.658;2023-07-13T14:33:36;6.07;;;3.67;;
74799;SDS011;63326;45.088;7.658;2023-07-13T14:36:05;5.45;;;3.78;;
74799;SDS011;63326;45.088;7.658;2023-07-13T14:38:39;8.23;;;3.50;;
74799;SDS011;63326;45.088;7.658;2023-07-13T14:41:07;7.68;;;3.92;;
74799;SDS011;63326;45.088;7.658;2023-07-13T14:43:34;6.32;;;4.07;;
74799;SDS011;63326;45.088;7.658;2023-07-13T14:46:00;7.47;;;3.17;;
74799;SDS011;63326;45.088;7.658;2023-07-13T14:48:27;6.70;;;4.07;;
74799;SDS011;63326;45.088;7.658;2023-07-13T14:50:54;7.63;;;4.28;;
74799;SDS011;63326;45.088;7.658;2023-07-13T14:53:22;9.57;;;3.92;;
74799;SDS011;63326;45.088;7.658;2023-07-13T14:55:49;8.35;;;3.78;;
74799;SDS011;63326;45.088;7.658;2023-07-13T14:58:17;5.93;;;3.92;;
74799;SDS011;63326;45.088;7.658;2023-07-13T15:00:43;6.80;;;3.88;;
74799;SDS011;63326;45.088;7.658;2023-07-13T15:03:16;5.25;;;3.42;;
74799;SDS011;63326;45.088;7.658;2023-07-13T15:05:45;5.68;;;3.78;;
74799;SDS011;63326;45.088;7.658;2023-07-13T15:08:12;5.07;;;3.60;;
74799;SDS011;63326;45.088;7.658;2023-07-13T15:10:39;6.38;;;3.38;;
74799;SDS011;63326;45.088;7.658;2023-07-13T15:13:21;4.97;;;3.63;;
74799;SDS011;63326;45.088;7.658;2023-07-13T15:15:50;6.93;;;3.85;;
74799;SDS011;63326;45.088;7.658;2023-07-13T15:18:18;6.40;;;3.83;;
74799;SDS011;63326;45.088;7.658;2023-07-13T15:20:46;6.05;;;3.67;;
74799;SDS011;63326;45.088;7.658;2023-07-13T15:23:14;6.18;;;3.42;;
74799;SDS011;63326;45.088;7.658;2023-07-13T15:25:41;7.85;;;3.83;;
74799;SDS011;63326;45.088;7.658;2023-07-13T15:28:08;6.97;;;4.15;;
74799;SDS011;63326;45.088;7.658;2023-07-13T15:30:40;6.72;;;3.67;;
74799;SDS011;63326;45.088;7.658;2023-07-13T15:33:13;6.97;;;3.70;;
74799;SDS011;63326;45.088;7.658;2023-07-13T15:35:40;6.97;;;3.95;;
74799;SDS011;63326;45.088;7.658;2023-07-13T15:38:19;5.68;;;3.90;;
74799;SDS011;63326;45.088;7.658;2023-07-13T15:40:47;6.70;;;3.72;;
74799;SDS011;63326;45.088;7.658;2023-07-13T15:43:15;6.03;;;4.25;;
74799;SDS011;63326;45.088;7.658;2023-07-13T15:45:41;4.85;;;3.65;;
74799;SDS011;63326;45.088;7.658;2023-07-13T15:48:11;5.93;;;3.85;;
74799;SDS011;63326;45.088;7.658;2023-07-13T15:50:43;5.88;;;3.92;;
74799;SDS011;63326;45.088;7.658;2023-07-13T15:53:10;10.82;;;4.07;;
74799;SDS011;63326;45.088;7.658;2023-07-13T15:55:38;6.40;;;3.20;;
74799;SDS011;63326;45.088;7.658;2023-07-13T15:58:08;5.95;;;3.25;;
74799;SDS011;63326;45.088;7.658;2023-07-13T16:00:36;7.22;;;3.60;;